Athens, IN

11:04 PM EDT on October 22, 2014 (GMT -0400)
4th Street | Change Station
CLOSE
Current Station
Personal Weather Station
Location: Rochester, IN
Elevation: 781 ft
Nearby Weather Stations

Elev 781 ft 41.07 °N, 86.20 °W | Updated 20 seconds ago

Clear
Clear
39.6 °F
Feels Like 40 °F
N
0.0
Wind Variable Wind from ENE
Gusts 0.0 mph

Today
High -- | Low -- °F
--% Chance of Precip.
Yesterday
High -- | Low -- °F
Precip. -- in
8:03 AM 6:53 PM
Waning Crescent, 1% visible
Pressure 30.29 in
Visibility 7.0 miles
Clouds Clear
Windchill 40 °F
Dew Point 36 °F
Humidity 86%
Rainfall 0.00 in
Snow Depth Not available.
UV 0 out of 12
Pollen .70 out of 12
Air Quality Not available.
Flu Activity Sporadic
METAR KRCR 230255Z AUTO 00000KT 7SM CLR 05/03 A3029 RMK AO2

More Conditions Fewer Conditions

Pressure 30.29 in
Visibility 7.0 miles
Clouds Clear
Windchill 40 °F
Dew Point 36 °F
Humidity 86%
Rainfall 0.00 in
Snow Depth Not available.
UV 0 out of 12
Pollen .70 out of 12
Air Quality Not available.
Flu Activity Sporadic
METAR KRCR 230255Z AUTO 00000KT 7SM CLR 05/03 A3029 RMK AO2

More Conditions Fewer Conditions

10-Day Weather Forecast

Almanac

Astronomy

Oct. 22, 2014 Rise Set
Actual Time 8:03 AM EDT 6:53 PM EDT
Civil Twilight 7:35 AM EDT 7:21 PM EDT
Nautical Twilight 7:03 AM EDT 7:53 PM EDT
Astronomical Twilight 6:31 AM EDT 8:25 PM EDT
Moon 6:44 AM EDT (10/22) 6:20 PM EDT (10/22)
Length of Visible Light 11h 45m
Length of Day
10h 49m
Tomorrow will be 2m 33s shorter.
Waning Crescent, 1% of the Moon is Illuminated
Today
Waning Crescent
Oct 23
New
Oct 30
First Quarter
Nov 6
Full
Nov 14
Last Quarter

Today's Extremes

State Highs State Lows

Community

WunderPhotos

Upload Photos

1,764,121 photos uploaded!

Nearby

Snow Depth

Station Depth Elevation
No new snow has been reported.

Earthquake Activity

City Distance Mag. Time & Date
No recent earthquake activity has been reported nearby.
Minimum magnitude displayed is 2.5.

Coastal Water Temperatures

Place Temperature
No Stations Reporting

Nearby Weather Stations